createdAt,value
2023-03-01T00:00:04.513Z,98126.38
2023-03-01T00:02:31.194Z,98126.94
2023-03-01T00:04:58.415Z,98123.47
2023-03-01T00:07:25.088Z,98122.22
2023-03-01T00:09:51.738Z,98129.59
2023-03-01T00:12:18.508Z,98126.25
2023-03-01T00:14:45.147Z,98127.69
2023-03-01T00:17:11.855Z,98125.00
2023-03-01T00:19:38.645Z,98125.22
2023-03-01T00:22:05.313Z,98121.09
2023-03-01T00:24:31.974Z,98117.63
2023-03-01T00:26:58.872Z,98110.84
2023-03-01T00:29:26.195Z,98115.13
2023-03-01T00:31:52.855Z,98118.66
2023-03-01T00:34:19.976Z,98121.31
2023-03-01T00:36:46.560Z,98114.31
2023-03-01T00:39:15.426Z,98112.69
2023-03-01T00:41:42.905Z,98116.38
2023-03-01T00:44:09.829Z,98117.38
2023-03-01T00:46:36.687Z,98120.63
2023-03-01T00:49:05.736Z,98105.25
2023-03-01T00:51:32.768Z,98119.19
2023-03-01T00:54:01.866Z,98125.53
2023-03-01T00:56:29.669Z,98129.22
2023-03-01T00:58:56.596Z,98124.72
2023-03-01T01:01:28.475Z,98122.25
2023-03-01T01:03:57.995Z,98121.81
2023-03-01T01:06:31.551Z,98107.44
2023-03-01T01:08:59.205Z,98108.25
2023-03-01T01:11:27.974Z,98109.94
2023-03-01T01:13:55.173Z,98110.75
2023-03-01T01:16:23.522Z,98114.03
2023-03-01T01:18:50.861Z,98083.22
2023-03-01T01:21:20.081Z,98117.75
2023-03-01T01:23:47.928Z,98108.53
2023-03-01T01:26:26.793Z,98106.72
2023-03-01T01:28:56.164Z,98108.16
2023-03-01T01:31:24.769Z,98100.78
2023-03-01T01:33:52.200Z,98100.16
2023-03-01T01:36:19.038Z,98097.75
2023-03-01T01:38:46.313Z,98097.53
2023-03-01T01:41:14.870Z,98100.84
2023-03-01T01:43:48.235Z,98101.00
2023-03-01T01:46:32.404Z,98098.59
2023-03-01T01:49:12.521Z,98092.25
2023-03-01T01:51:43.006Z,98087.53
2023-03-01T01:54:13.490Z,98086.72
2023-03-01T01:56:44.448Z,98096.78
2023-03-01T01:59:12.793Z,98089.41
2023-03-01T02:01:39.792Z,98079.13
2023-03-01T02:04:07.594Z,98084.09
2023-03-01T02:07:07.816Z,98082.91
2023-03-01T02:09:35.545Z,98082.47
2023-03-01T02:12:03.944Z,98083.09
2023-03-01T02:14:30.792Z,98085.16
2023-03-01T02:16:58.011Z,98079.66
2023-03-01T02:19:43.682Z,98074.50
2023-03-01T02:22:25.839Z,98078.00
2023-03-01T02:24:56.384Z,98079.25
2023-03-01T02:27:27.414Z,98069.59
2023-03-01T02:29:54.900Z,98081.06
2023-03-01T02:32:26.318Z,98063.84
2023-03-01T02:34:55.769Z,98065.50
2023-03-01T02:37:25.817Z,98074.53
2023-03-01T02:39:59.304Z,98070.66
2023-03-01T02:42:34.924Z,98064.28
2023-03-01T02:45:01.842Z,98070.84
2023-03-01T02:47:28.538Z,98062.84
2023-03-01T02:49:55.137Z,98065.53
2023-03-01T02:52:42.079Z,98067.38
2023-03-01T02:55:14.954Z,98062.88
2023-03-01T02:57:45.598Z,98055.69
2023-03-01T03:00:26.248Z,98051.19
2023-03-01T03:02:55.181Z,98059.19
2023-03-01T03:05:27.284Z,98059.00
2023-03-01T03:07:54.941Z,98054.09
2023-03-01T03:10:26.007Z,98057.56
2023-03-01T03:12:55.925Z,98061.88
2023-03-01T03:15:23.825Z,98058.00
2023-03-01T03:17:52.117Z,98046.50
2023-03-01T03:20:21.412Z,98051.84
2023-03-01T03:22:50.582Z,98051.44
2023-03-01T03:25:21.756Z,98051.03
2023-03-01T03:27:50.310Z,98046.72
2023-03-01T03:30:19.458Z,98049.19
2023-03-01T03:32:54.652Z,98042.63
2023-03-01T03:35:31.401Z,98048.38
2023-03-01T03:38:03.088Z,98053.28
2023-03-01T03:40:39.708Z,98044.88
2023-03-01T03:43:09.678Z,98045.50
2023-03-01T03:45:37.174Z,98038.72
2023-03-01T03:48:06.152Z,98046.75
2023-03-01T03:50:33.384Z,98046.34
2023-03-01T03:53:06.206Z,98046.34
2023-03-01T03:55:34.901Z,98045.94
2023-03-01T03:58:07.837Z,98040.59
2023-03-01T04:00:36.720Z,98031.38
2023-03-01T04:03:04.020Z,98027.44
2023-03-01T04:05:30.797Z,98019.66
2023-03-01T04:08:04.814Z,98031.13
2023-03-01T04:10:34.104Z,98038.50
2023-03-01T04:13:00.832Z,98037.50
2023-03-01T04:15:28.490Z,98040.19
2023-03-01T04:17:56.046Z,98027.84
2023-03-01T04:20:28.222Z,98037.28
2023-03-01T04:23:14.160Z,98035.03
2023-03-01T04:25:43.411Z,98040.38
2023-03-01T04:28:15.253Z,98024.19
2023-03-01T04:30:42.438Z,98028.69
2023-03-01T04:33:10.782Z,98038.34
2023-03-01T04:35:38.553Z,98039.78
2023-03-01T04:38:06.269Z,98040.59
2023-03-01T04:40:33.491Z,98044.88
2023-03-01T04:43:00.241Z,98044.88
2023-03-01T04:45:26.992Z,98048.38
2023-03-01T04:47:53.813Z,98040.16
2023-03-01T04:50:24.807Z,98046.13
2023-03-01T04:52:51.487Z,98041.81
2023-03-01T04:55:18.229Z,98049.41
2023-03-01T04:57:45.079Z,98052.06
2023-03-01T05:00:22.946Z,98051.03
2023-03-01T05:02:55.891Z,98046.53
2023-03-01T05:05:26.669Z,98050.81
2023-03-01T05:07:59.349Z,98048.78
2023-03-01T05:10:27.873Z,98052.91
2023-03-01T05:12:54.567Z,98063.34
2023-03-01T05:15:26.687Z,98069.50
2023-03-01T05:17:55.340Z,98061.09
2023-03-01T05:20:25.816Z,98075.66
2023-03-01T05:22:55.698Z,98074.66
2023-03-01T05:25:22.512Z,98071.75
2023-03-01T05:27:49.526Z,98068.88
2023-03-01T05:30:16.590Z,98072.34
2023-03-01T05:32:49.349Z,98064.78
2023-03-01T05:35:18.444Z,98069.69
2023-03-01T05:37:47.759Z,98070.53
2023-03-01T05:40:18.523Z,98072.78
2023-03-01T05:42:50.514Z,98076.28
2023-03-01T05:45:18.626Z,98079.13
2023-03-01T05:47:46.831Z,98065.59
2023-03-01T05:50:22.141Z,98077.72
2023-03-01T05:52:50.976Z,98070.94
2023-03-01T05:55:22.761Z,98073.63
2023-03-01T05:57:50.957Z,98075.47
2023-03-01T06:00:19.719Z,98078.53
2023-03-01T06:02:46.748Z,98083.06
2023-03-01T06:05:14.508Z,98087.34
2023-03-01T06:07:41.824Z,98084.69
2023-03-01T06:10:10.235Z,98078.75
2023-03-01T06:12:38.785Z,98079.56
2023-03-01T06:15:06.722Z,98078.31
2023-03-01T06:17:38.832Z,98075.25
2023-03-01T06:20:15.583Z,98071.16
2023-03-01T06:22:42.868Z,98059.03
2023-03-01T06:25:11.012Z,98071.75
2023-03-01T06:27:37.734Z,98072.56
2023-03-01T06:30:05.087Z,98074.84
2023-03-01T06:32:33.288Z,98074.03
2023-03-01T06:34:59.896Z,98072.38
2023-03-01T06:37:27.026Z,98061.50
2023-03-01T06:39:53.862Z,98071.75
2023-03-01T06:42:20.505Z,98068.06
2023-03-01T06:44:47.340Z,98073.41
2023-03-01T06:47:14.240Z,98077.91
2023-03-01T06:49:41.748Z,98073.81
2023-03-01T06:52:08.726Z,98073.81
2023-03-01T06:54:35.420Z,98080.38
2023-03-01T06:57:02.049Z,98075.44
2023-03-01T06:59:28.712Z,98073.78
2023-03-01T07:01:55.645Z,98082.63
2023-03-01T07:04:22.309Z,98079.50
2023-03-01T07:06:55.869Z,98073.56
2023-03-01T07:09:26.369Z,98070.69
2023-03-01T07:11:52.956Z,98072.53
2023-03-01T07:14:20.808Z,98044.63
2023-03-01T07:16:47.478Z,98080.94
2023-03-01T07:19:14.131Z,98070.03
2023-03-01T07:21:40.767Z,98059.78
2023-03-01T07:24:08.337Z,98065.50
2023-03-01T07:26:35.143Z,98069.22
2023-03-01T07:29:03.795Z,98063.25
2023-03-01T07:31:30.515Z,98079.88
2023-03-01T07:33:57.668Z,98065.50
2023-03-01T07:36:24.807Z,98060.72
2023-03-01T07:38:52.212Z,98060.28
2023-03-01T07:41:18.937Z,98075.06
2023-03-01T07:43:46.021Z,98062.47
2023-03-01T07:46:12.710Z,98064.47
2023-03-01T07:48:39.387Z,98061.56
2023-03-01T07:51:08.237Z,98051.44
2023-03-01T07:53:35.617Z,98055.25
2023-03-01T07:56:07.480Z,98048.41
2023-03-01T07:58:44.702Z,98049.47
2023-03-01T08:01:14.536Z,98053.13
2023-03-01T08:03:42.024Z,98057.91
2023-03-01T08:06:10.775Z,98057.56
2023-03-01T08:08:38.190Z,98051.66
2023-03-01T08:11:06.885Z,98052.94
2023-03-01T08:13:34.238Z,98043.84
2023-03-01T08:16:06.536Z,98041.47
2023-03-01T08:18:33.403Z,98042.88
2023-03-01T08:21:14.442Z,98046.78
2023-03-01T08:23:42.431Z,98050.03
2023-03-01T08:26:18.453Z,98045.19
2023-03-01T08:28:46.137Z,98035.19
2023-03-01T08:31:24.949Z,98038.50
2023-03-01T08:33:58.131Z,98034.19
2023-03-01T08:36:27.734Z,98032.09
2023-03-01T08:38:55.124Z,98039.47
2023-03-01T08:41:22.069Z,98029.66
2023-03-01T08:43:48.809Z,98023.19
2023-03-01T08:46:16.180Z,98020.13
2023-03-01T08:48:44.193Z,98019.97
2023-03-01T08:51:19.915Z,98020.16
2023-03-01T08:53:46.755Z,98024.31
2023-03-01T08:56:14.222Z,98024.78
2023-03-01T08:58:41.047Z,98015.84
2023-03-01T09:01:09.505Z,98014.88
2023-03-01T09:03:36.529Z,98008.03
2023-03-01T09:06:05.576Z,98010.44
2023-03-01T09:08:35.110Z,98009.06
2023-03-01T09:11:06.394Z,98008.56
2023-03-01T09:13:33.470Z,98004.69
2023-03-01T09:16:02.170Z,98004.94
2023-03-01T09:18:29.328Z,97988.09
2023-03-01T09:21:10.437Z,97991.69
2023-03-01T09:23:42.493Z,97983.44
2023-03-01T09:26:15.674Z,97994.66
2023-03-01T09:28:42.264Z,97982.06
2023-03-01T09:31:09.113Z,97989.56
2023-03-01T09:33:36.162Z,97974.56
2023-03-01T09:36:08.216Z,97975.81
2023-03-01T09:38:35.906Z,97970.03
2023-03-01T09:41:03.750Z,97969.78
2023-03-01T09:43:48.112Z,97969.84
2023-03-01T09:46:19.197Z,97967.66
2023-03-01T09:49:13.313Z,97962.50
2023-03-01T09:51:40.035Z,97958.44
2023-03-01T09:54:09.398Z,97951.97
2023-03-01T09:56:36.014Z,97961.78
2023-03-01T09:59:14.494Z,97949.75
2023-03-01T10:02:12.105Z,97946.03
2023-03-01T10:04:52.572Z,97943.66
2023-03-01T10:07:58.389Z,97943.97
2023-03-01T10:10:34.088Z,97944.81
2023-03-01T10:13:11.809Z,97946.00
2023-03-01T10:15:48.770Z,97936.56
2023-03-01T10:18:23.116Z,97928.75
2023-03-01T10:20:53.672Z,97931.53
2023-03-01T10:23:20.665Z,97928.38
2023-03-01T10:25:57.910Z,97935.44
2023-03-01T10:28:47.210Z,97933.81
2023-03-01T10:31:19.418Z,97922.47
2023-03-01T10:33:46.185Z,97923.03
2023-03-01T10:36:12.836Z,97916.00
2023-03-01T10:38:57.980Z,97916.84
2023-03-01T10:41:28.061Z,97913.34
2023-03-01T10:43:57.701Z,97906.56
2023-03-01T10:46:29.157Z,97903.59
2023-03-01T10:49:16.164Z,97903.31
2023-03-01T10:51:46.017Z,97903.59
2023-03-01T10:54:33.804Z,97904.13
2023-03-01T10:57:03.287Z,97900.09
2023-03-01T10:59:38.313Z,97886.00
2023-03-01T11:02:23.449Z,97893.28
2023-03-01T11:04:58.153Z,97881.38
2023-03-01T11:07:25.006Z,97879.78
2023-03-01T11:09:51.554Z,97868.38
2023-03-01T11:12:18.810Z,97874.34
2023-03-01T11:14:56.432Z,97862.94
2023-03-01T11:17:31.617Z,97863.47
2023-03-01T11:20:14.974Z,97871.06
2023-03-01T11:22:53.656Z,97861.31
2023-03-01T11:25:27.482Z,97857.50
2023-03-01T11:27:57.837Z,97848.28
2023-03-01T11:30:38.798Z,97850.72
2023-03-01T11:33:18.533Z,97852.06
2023-03-01T11:35:57.111Z,97842.84
2023-03-01T11:38:29.737Z,97849.31
2023-03-01T11:41:22.602Z,97850.66
2023-03-01T11:44:09.898Z,97834.94
2023-03-01T11:46:59.590Z,97836.88
2023-03-01T11:49:44.985Z,97845.06
2023-03-01T11:52:39.798Z,97845.63
2023-03-01T11:55:18.845Z,97843.47
2023-03-01T11:58:17.539Z,97836.44
2023-03-01T12:01:35.873Z,97831.84
2023-03-01T12:04:20.477Z,97827.75
2023-03-01T12:06:50.697Z,97827.47
2023-03-01T12:09:29.167Z,97817.75
2023-03-01T12:11:58.942Z,97823.44
2023-03-01T12:14:50.950Z,97814.75
2023-03-01T12:17:58.827Z,97813.41
2023-03-01T12:20:38.235Z,97809.59
2023-03-01T12:23:21.240Z,97814.75
2023-03-01T12:26:24.839Z,97807.69
2023-03-01T12:29:39.851Z,97804.19
2023-03-01T12:32:48.252Z,97805.56
2023-03-01T12:35:42.884Z,97799.59
2023-03-01T12:38:18.634Z,97803.38
2023-03-01T12:41:06.298Z,97792.50
2023-03-01T12:44:13.227Z,97790.09
2023-03-01T12:46:49.188Z,97787.09
2023-03-01T12:49:25.270Z,97785.22
2023-03-01T12:52:10.846Z,97784.13
2023-03-01T12:54:38.499Z,97779.25
2023-03-01T12:57:17.959Z,97785.75
2023-03-01T13:00:18.331Z,97777.63
2023-03-01T13:03:00.184Z,97777.59
2023-03-01T13:05:55.019Z,97773.75
2023-03-01T13:08:21.554Z,97780.22
2023-03-01T13:10:57.718Z,97772.88
2023-03-01T13:13:27.306Z,97771.53
2023-03-01T13:15:54.652Z,97776.38
2023-03-01T13:18:23.223Z,97766.88
2023-03-01T13:20:51.031Z,97764.16
2023-03-01T13:23:20.590Z,97760.34
2023-03-01T13:26:09.262Z,97766.06
2023-03-01T13:28:49.857Z,97767.72
2023-03-01T13:31:16.878Z,97754.94
2023-03-01T13:33:45.077Z,97751.97
2023-03-01T13:36:34.438Z,97757.16
2023-03-01T13:39:03.988Z,97754.50
2023-03-01T13:41:40.055Z,97751.53
2023-03-01T13:44:33.560Z,97761.00
2023-03-01T13:47:04.959Z,97749.34
2023-03-01T13:49:46.593Z,97749.88
2023-03-01T13:52:44.235Z,97744.75
2023-03-01T13:55:19.875Z,97754.22
2023-03-01T13:57:55.023Z,97749.38
2023-03-01T14:00:39.733Z,97752.34
2023-03-01T14:03:20.202Z,97750.50
2023-03-01T14:06:19.720Z,97745.91
2023-03-01T14:08:50.885Z,97748.13
2023-03-01T14:11:30.478Z,97751.66
2023-03-01T14:14:11.852Z,97741.94
2023-03-01T14:16:55.176Z,97744.63
2023-03-01T14:19:33.477Z,97732.47
2023-03-01T14:22:14.334Z,97729.22
2023-03-01T14:25:06.221Z,97733.28
2023-03-01T14:27:42.940Z,97728.41
2023-03-01T14:30:25.645Z,97733.28
2023-03-01T14:33:00.459Z,97735.69
2023-03-01T14:35:32.330Z,97728.66
2023-03-01T14:37:59.442Z,97729.22
2023-03-01T14:40:32.745Z,97735.72
2023-03-01T14:43:02.522Z,97731.91
2023-03-01T14:45:31.627Z,97727.59
2023-03-01T14:48:04.916Z,97734.06
2023-03-01T14:50:35.221Z,97704.88
2023-03-01T14:53:09.028Z,97730.59
2023-03-01T14:55:39.198Z,97730.31
2023-03-01T14:58:10.520Z,97721.66
2023-03-01T15:00:37.926Z,97726.53
2023-03-01T15:03:14.557Z,97722.22
2023-03-01T15:05:43.929Z,97718.41
2023-03-01T15:08:20.069Z,97723.28
2023-03-01T15:11:27.141Z,97714.09
2023-03-01T15:13:54.166Z,97721.13
2023-03-01T15:16:23.515Z,97722.50
2023-03-01T15:18:53.482Z,97711.41
2023-03-01T15:21:28.281Z,97708.16
2023-03-01T15:24:06.406Z,97708.44
2023-03-01T15:26:39.192Z,97718.69
2023-03-01T15:29:05.974Z,97716.81
2023-03-01T15:31:39.740Z,97708.16
2023-03-01T15:34:23.450Z,97710.03
2023-03-01T15:36:51.697Z,97715.72
2023-03-01T15:39:39.878Z,97710.59
2023-03-01T15:42:33.432Z,97719.78
2023-03-01T15:45:22.075Z,97720.03
2023-03-01T15:47:51.859Z,97712.50
2023-03-01T15:50:31.098Z,97718.97
2023-03-01T15:53:01.079Z,97718.72
2023-03-01T15:55:34.307Z,97706.81
2023-03-01T15:58:07.757Z,97710.31
2023-03-01T16:00:34.566Z,97712.47
2023-03-01T16:03:01.327Z,97713.53
2023-03-01T16:05:37.631Z,97705.13
2023-03-01T16:08:04.923Z,97716.22
2023-03-01T16:10:32.606Z,97724.34
2023-03-01T16:12:59.589Z,97731.38
2023-03-01T16:15:34.574Z,97728.09
2023-03-01T16:18:01.609Z,97721.59
2023-03-01T16:20:33.472Z,97727.53
2023-03-01T16:23:02.722Z,97728.06
2023-03-01T16:25:30.438Z,97725.38
2023-03-01T16:27:59.432Z,97743.19
2023-03-01T16:30:26.707Z,97740.50
2023-03-01T16:32:53.596Z,97742.13
2023-03-01T16:35:22.048Z,97736.16
2023-03-01T16:37:50.293Z,97739.38
2023-03-01T16:40:22.733Z,97740.19
2023-03-01T16:42:50.894Z,97749.66
2023-03-01T16:45:24.351Z,97751.78
2023-03-01T16:47:55.147Z,97749.63
2023-03-01T16:50:22.668Z,97756.63
2023-03-01T16:52:49.360Z,97757.16
2023-03-01T16:55:15.992Z,97748.22
2023-03-01T16:57:43.025Z,97754.44
2023-03-01T17:00:11.893Z,97751.97
2023-03-01T17:02:38.924Z,97751.16
2023-03-01T17:05:06.745Z,97756.81
2023-03-01T17:07:35.300Z,97750.59
2023-03-01T17:10:03.900Z,97753.00
2023-03-01T17:12:30.848Z,97756.22
2023-03-01T17:14:57.468Z,97750.81
2023-03-01T17:17:24.435Z,97750.25
2023-03-01T17:19:51.290Z,97750.00
2023-03-01T17:22:17.909Z,97751.56
2023-03-01T17:24:44.934Z,97749.44
2023-03-01T17:27:13.300Z,97742.94
2023-03-01T17:29:40.868Z,97748.84
2023-03-01T17:32:08.172Z,97747.47
2023-03-01T17:34:34.978Z,97738.56
2023-03-01T17:37:01.641Z,97750.72
2023-03-01T17:39:32.287Z,97751.25
2023-03-01T17:41:59.304Z,97747.19
2023-03-01T17:44:26.304Z,97742.28
2023-03-01T17:46:52.890Z,97744.47
2023-03-01T17:49:20.026Z,97741.19
2023-03-01T17:51:46.744Z,97744.69
2023-03-01T17:54:13.354Z,97757.38
2023-03-01T17:56:42.267Z,97750.88
2023-03-01T17:59:08.875Z,97743.00
2023-03-01T18:01:39.345Z,97749.47
2023-03-01T18:04:06.256Z,97754.31
2023-03-01T18:06:33.289Z,97741.06
2023-03-01T18:09:00.477Z,97742.94
2023-03-01T18:11:27.283Z,97737.50
2023-03-01T18:13:55.636Z,97747.00
2023-03-01T18:16:22.833Z,97739.13
2023-03-01T18:18:55.194Z,97740.19
2023-03-01T18:21:22.977Z,97745.88
2023-03-01T18:23:49.882Z,97751.28
2023-03-01T18:26:20.486Z,97749.09
2023-03-01T18:28:47.529Z,97752.03
2023-03-01T18:31:18.970Z,97747.41
2023-03-01T18:33:46.965Z,97750.63
2023-03-01T18:36:29.757Z,97756.28
2023-03-01T18:38:56.998Z,97762.75
2023-03-01T18:41:26.450Z,97756.50
2023-03-01T18:43:54.282Z,97762.47
2023-03-01T18:46:23.920Z,97760.81
2023-03-01T18:48:52.906Z,97757.59
2023-03-01T18:51:23.895Z,97760.78
2023-03-01T18:53:50.770Z,97759.69
2023-03-01T18:56:17.555Z,97767.25
2023-03-01T18:58:44.274Z,97758.06
2023-03-01T19:01:17.716Z,97761.25
2023-03-01T19:03:47.633Z,97765.56
2023-03-01T19:06:14.494Z,97762.00
2023-03-01T19:08:42.373Z,97757.13
2023-03-01T19:11:09.738Z,97761.78
2023-03-01T19:13:38.811Z,97754.66
2023-03-01T19:16:11.630Z,97764.47
2023-03-01T19:18:41.309Z,97760.06
2023-03-01T19:21:10.090Z,97762.25
2023-03-01T19:23:38.645Z,97763.81
2023-03-01T19:26:09.488Z,97762.22
2023-03-01T19:28:39.245Z,97762.44
2023-03-01T19:31:09.443Z,97775.69
2023-03-01T19:33:40.409Z,97760.53
2023-03-01T19:36:08.504Z,97772.19
2023-03-01T19:38:36.143Z,97775.13
2023-03-01T19:41:08.653Z,97762.13
2023-03-01T19:43:36.016Z,97773.22
2023-03-01T19:46:02.980Z,97776.72
2023-03-01T19:48:29.941Z,97773.72
2023-03-01T19:50:56.838Z,97771.03
2023-03-01T19:53:23.472Z,97776.44
2023-03-01T19:55:53.128Z,97775.31
2023-03-01T19:58:20.226Z,97765.56
2023-03-01T20:00:47.295Z,97773.91
2023-03-01T20:03:14.421Z,97765.78
2023-03-01T20:05:42.861Z,97777.41
2023-03-01T20:08:09.688Z,97766.56
2023-03-01T20:10:36.834Z,97769.00
2023-03-01T20:13:03.549Z,97766.56
2023-03-01T20:15:30.331Z,97773.59
2023-03-01T20:17:56.989Z,97772.97
2023-03-01T20:20:23.761Z,97778.94
2023-03-01T20:22:50.580Z,97776.75
2023-03-01T20:25:17.581Z,97776.94
2023-03-01T20:27:47.834Z,97773.38
2023-03-01T20:30:16.048Z,97774.19
2023-03-01T20:32:43.386Z,97774.44
2023-03-01T20:35:10.913Z,97773.06
2023-03-01T20:37:38.206Z,97786.59
2023-03-01T20:40:05.664Z,97781.22
2023-03-01T20:42:33.551Z,97781.22
2023-03-01T20:45:00.333Z,97782.50
2023-03-01T20:47:27.104Z,97779.00
2023-03-01T20:49:53.885Z,97754.38
2023-03-01T20:52:20.942Z,97780.91
2023-03-01T20:54:47.601Z,97785.47
2023-03-01T20:57:14.212Z,97778.47
2023-03-01T20:59:41.100Z,97765.75
2023-03-01T21:02:07.746Z,97763.00
2023-03-01T21:04:34.467Z,97770.88
2023-03-01T21:07:01.685Z,97775.47
2023-03-01T21:09:28.462Z,97773.00
2023-03-01T21:11:55.185Z,97769.44
2023-03-01T21:14:22.577Z,97766.50
2023-03-01T21:16:49.648Z,97771.66
2023-03-01T21:19:16.337Z,97777.53
2023-03-01T21:21:43.255Z,97780.47
2023-03-01T21:24:10.742Z,97782.84
2023-03-01T21:26:37.950Z,97780.41
2023-03-01T21:29:04.727Z,97780.59
2023-03-01T21:31:35.289Z,97784.69
2023-03-01T21:34:04.816Z,97780.06
2023-03-01T21:36:33.011Z,97790.06
2023-03-01T21:39:02.080Z,97782.47
2023-03-01T21:41:31.229Z,97775.47
2023-03-01T21:44:00.800Z,97780.84
2023-03-01T21:46:30.940Z,97778.97
2023-03-01T21:48:58.578Z,97772.19
2023-03-01T21:51:27.572Z,97773.28
2023-03-01T21:53:56.176Z,97772.16
2023-03-01T21:56:29.509Z,97773.22
2023-03-01T21:58:57.902Z,97768.34
2023-03-01T22:01:29.449Z,97773.22
2023-03-01T22:03:58.042Z,97767.00
2023-03-01T22:06:29.113Z,97776.16
2023-03-01T22:08:58.534Z,97767.25
2023-03-01T22:11:27.194Z,97762.94
2023-03-01T22:13:55.672Z,97760.50
2023-03-01T22:16:29.296Z,97764.25
2023-03-01T22:18:57.257Z,97758.56
2023-03-01T22:21:25.220Z,97766.41
2023-03-01T22:23:53.700Z,97763.94
2023-03-01T22:26:30.062Z,97767.69
2023-03-01T22:28:59.276Z,97762.00
2023-03-01T22:31:27.074Z,97761.69
2023-03-01T22:33:57.010Z,97757.38
2023-03-01T22:36:24.059Z,97756.81
2023-03-01T22:38:56.288Z,97752.72
2023-03-01T22:41:23.724Z,97753.56
2023-03-01T22:43:50.446Z,97753.78
2023-03-01T22:46:18.478Z,97754.88
2023-03-01T22:48:46.566Z,97756.16
2023-03-01T22:51:25.466Z,97760.75
2023-03-01T22:53:52.534Z,97758.84
2023-03-01T22:56:22.903Z,97739.06
2023-03-01T22:58:50.519Z,97760.41
2023-03-01T23:01:19.798Z,97758.31
2023-03-01T23:03:47.775Z,97755.63
2023-03-01T23:06:15.750Z,97763.44
2023-03-01T23:08:42.559Z,97752.09
2023-03-01T23:11:15.527Z,97763.16
2023-03-01T23:13:42.732Z,97757.47
2023-03-01T23:16:10.639Z,97758.31
2023-03-01T23:18:38.356Z,97761.00
2023-03-01T23:21:14.563Z,97767.19
2023-03-01T23:23:42.307Z,97761.22
2023-03-01T23:26:09.619Z,97762.03
2023-03-01T23:28:40.893Z,97757.72
2023-03-01T23:31:13.863Z,97762.03
2023-03-01T23:33:43.410Z,97755.53
2023-03-01T23:36:26.217Z,97758.72
2023-03-01T23:38:57.739Z,97761.72
2023-03-01T23:41:26.064Z,97765.47
2023-03-01T23:43:55.280Z,97759.78
2023-03-01T23:46:24.530Z,97748.47
2023-03-01T23:48:51.413Z,97757.91
2023-03-01T23:51:18.613Z,97750.91
2023-03-01T23:53:54.519Z,97741.94
2023-03-01T23:56:33.688Z,97759.78
2023-03-01T23:59:02.910Z,97752.19
